Wels, Austria
Current Conditions -  °F | °C
As of 12:20 PM on Thursday 23 Oct 2014 (Local Time) from LOWL Reporting Station
Broken Clouds Broken Clouds  
Wind Chill: 50°   Ceiling: 3200
Heat Index: 50°   Visibility: 6mi
Dew Point: 48°   Wind: 10mph
Humidity: 94%   Direction: 270°W
Pressure: 29.97"   Gusts: NA
Location:  48.17°N, 14.03°E
Report Text: LOWL 231020Z 27009KT 9999 FEW009 SCT023 BKN032 10/09 Q1015 NOSIG
Loading
Personal Weather Stations






























Interactive Weather Map
Tropical Storm Tracking
New forecast layout! Learn more

10-Day Weather Forecast

Advertisements
Track Severe Weather on mobile